Time;durP1;ratioP1;P1;durP2;ratioP2;P2;SDS_P1;SDS_P2;PMS_P1;PMS_P2;Temp;Humidity;BMP_temperature;BMP_pressure;BME280_temperature;BME280_humidity;BME280_pressure;Samples;Min_cycle;Max_cycle;Signal;HPM_P1;HPM_P2
2023/07/25 00:01:27;;;;;;;;;;;;;;;;;;5324284;28;19904;-73
2023/07/25 00:03:58;;;;;;;;;;;;;;;;;;5327051;28;19908;-72
2023/07/25 00:06:29;;;;;;;;;;;;;;;;;;5327457;28;19903;-72
2023/07/25 00:09:00;;;;;;;;;;;;;;;;;;5328501;28;19962;-73
2023/07/25 00:11:31;;;;;;;;;;;;;;;;;;5327325;28;20003;-73
2023/07/25 00:14:02;;;;;;;;;;;;;;;;;;5328476;28;19907;-72
2023/07/25 00:16:34;;;;;;;;;;;;;;;;;;5327893;28;20262;-73
2023/07/25 00:19:05;;;;;;;;;;;;;;;;;;5327732;28;19997;-72
2023/07/25 00:21:36;;;;;;;;;;;;;;;;;;5327849;28;19908;-73
2023/07/25 00:24:07;;;;;;;;;;;;;;;;;;5310293;28;20463;-72
2023/07/25 00:26:38;;;;;;;;;;;;;;;;;;5327188;28;19904;-73
2023/07/25 00:29:09;;;;;;;;;;;;;;;;;;5328245;28;19912;-72
2023/07/25 00:31:40;;;;;;;;;;;;;;;;;;5327698;28;20385;-73
2023/07/25 00:34:11;;;;;;;;;;;;;;;;;;5327576;28;19904;-72
2023/07/25 00:36:42;;;;;;;;;;;;;;;;;;5327323;28;19984;-72
2023/07/25 00:39:14;;;;;;;;;;;;;;;;;;5328143;28;19903;-72
2023/07/25 00:41:45;;;;;;;;;;;;;;;;;;5326649;28;19949;-73
2023/07/25 00:44:17;;;;;;;;;;;;;;;;;;5328197;28;20357;-73
2023/07/25 00:46:48;;;;;;;;;;;;;;;;;;5326452;28;19957;-72
2023/07/25 00:49:19;;;;;;;;;;;;;;;;;;5327851;28;19912;-72
2023/07/25 00:51:50;;;;;;;;;;;;;;;;;;5327179;28;19961;-73
2023/07/25 00:54:21;;;;;;;;;;;;;;;;;;5327121;28;19925;-73
2023/07/25 00:56:53;;;;;;;;;;;;;;;;;;5327349;28;19949;-72
2023/07/25 00:59:25;;;;;;;;;;;;;;;;;;5327621;28;19910;-73
2023/07/25 01:01:56;;;;;;;;;;;;;;;;;;5326670;28;19999;-73
2023/07/25 01:04:27;;;;;;;;;;;;;;;;;;5327222;28;19999;-73
2023/07/25 01:06:58;;;;;;;;;;;;;;;;;;5327197;28;19903;-73
2023/07/25 01:09:29;;;;;;;;;;;;;;;;;;5326568;28;19931;-72
2023/07/25 01:12:01;;;;;;;;;;;;;;;;;;5327411;28;19904;-72
2023/07/25 01:14:32;;;;;;;;;;;;;;;;;;5326204;28;19904;-72
2023/07/25 01:17:04;;;;;;;;;;;;;;;;;;5326575;28;19946;-73
2023/07/25 01:19:35;;;;;;;;;;;;;;;;;;5326630;28;19960;-72
2023/07/25 01:22:07;;;;;;;;;;;;;;;;;;5326595;28;20421;-73
2023/07/25 01:24:38;;;;;;;;;;;;;;;;;;5326653;28;19935;-73
2023/07/25 01:27:09;;;;;;;;;;;;;;;;;;5327075;28;20495;-72
2023/07/25 01:29:40;;;;;;;;;;;;;;;;;;5325603;28;19953;-72
2023/07/25 01:32:11;;;;;;;;;;;;;;;;;;5327098;28;19915;-73
2023/07/25 01:34:42;;;;;;;;;;;;;;;;;;5326392;28;19904;-73
2023/07/25 01:37:13;;;;;;;;;;;;;;;;;;5326238;28;19904;-72
2023/07/25 01:39:44;;;;;;;;;;;;;;;;;;5326314;28;19976;-73
2023/07/25 01:42:15;;;;;;;;;;;;;;;;;;5326806;28;19904;-72
2023/07/25 01:44:47;;;;;;;;;;;;;;;;;;5325710;28;19911;-72
2023/07/25 01:47:18;;;;;;;;;;;;;;;;;;5326620;28;19912;-72
2023/07/25 01:49:49;;;;;;;;;;;;;;;;;;5326018;28;19912;-72
2023/07/25 01:52:20;;;;;;;;;;;;;;;;;;5325744;28;20312;-73
2023/07/25 01:54:51;;;;;;;;;;;;;;;;;;5326322;28;19903;-73
2023/07/25 01:57:22;;;;;;;;;;;;;;;;;;5325830;28;19911;-72
2023/07/25 01:59:53;;;;;;;;;;;;;;;;;;5326061;28;20266;-72
2023/07/25 02:02:24;;;;;;;;;;;;;;;;;;5326214;28;19946;-73
2023/07/25 02:04:55;;;;;;;;;;;;;;;;;;5325413;28;19956;-72
2023/07/25 02:07:27;;;;;;;;;;;;;;;;;;5325511;28;20335;-72
2023/07/25 02:09:58;;;;;;;;;;;;;;;;;;5326142;28;19903;-72
2023/07/25 02:12:29;;;;;;;;;;;;;;;;;;5325255;28;20019;-72
2023/07/25 02:15:00;;;;;;;;;;;;;;;;;;5326059;28;19907;-72
2023/07/25 02:17:32;;;;;;;;;;;;;;;;;;5324793;28;20273;-72
2023/07/25 02:20:03;;;;;;;;;;;;;;;;;;5325536;28;19904;-72
2023/07/25 02:22:34;;;;;;;;;;;;;;;;;;5325714;28;19910;-73
2023/07/25 02:25:05;;;;;;;;;;;;;;;;;;5325569;28;19904;-72
2023/07/25 02:27:36;;;;;;;;;;;;;;;;;;5323796;28;19911;-72
2023/07/25 02:30:07;;;;;;;;;;;;;;;;;;5325891;28;19956;-72
2023/07/25 02:32:38;;;;;;;;;;;;;;;;;;5324296;28;19988;-72
2023/07/25 02:35:09;;;;;;;;;;;;;;;;;;5325917;28;19904;-73
2023/07/25 02:37:40;;;;;;;;;;;;;;;;;;5324993;28;19908;-72
2023/07/25 02:40:11;;;;;;;;;;;;;;;;;;5324233;28;20312;-72
2023/07/25 02:42:43;;;;;;;;;;;;;;;;;;5324902;28;20332;-72
2023/07/25 02:45:14;;;;;;;;;;;;;;;;;;5325817;28;19949;-72
2023/07/25 02:47:45;;;;;;;;;;;;;;;;;;5324036;28;19932;-72
2023/07/25 02:50:16;;;;;;;;;;;;;;;;;;5325627;28;19957;-72
2023/07/25 02:52:47;;;;;;;;;;;;;;;;;;5324713;28;19903;-72
2023/07/25 02:55:18;;;;;;;;;;;;;;;;;;5324553;28;19903;-72
2023/07/25 02:57:49;;;;;;;;;;;;;;;;;;5324687;28;20003;-72
2023/07/25 03:00:20;;;;;;;;;;;;;;;;;;5324636;28;20269;-72
2023/07/25 03:02:51;;;;;;;;;;;;;;;;;;5324528;28;19998;-73
2023/07/25 03:05:22;;;;;;;;;;;;;;;;;;5325123;28;19904;-72
2023/07/25 03:07:54;;;;;;;;;;;;;;;;;;5323811;28;19918;-72
2023/07/25 03:10:25;;;;;;;;;;;;;;;;;;5324784;28;19950;-72
2023/07/25 03:12:56;;;;;;;;;;;;;;;;;;5325352;28;20325;-72
2023/07/25 03:15:27;;;;;;;;;;;;;;;;;;5324058;28;19947;-72
2023/07/25 03:17:58;;;;;;;;;;;;;;;;;;5324593;28;19903;-73
2023/07/25 03:20:29;;;;;;;;;;;;;;;;;;5324640;28;20330;-73
2023/07/25 03:23:00;;;;;;;;;;;;;;;;;;5324229;28;19956;-72
2023/07/25 03:25:31;;;;;;;;;;;;;;;;;;5324359;28;19911;-73
2023/07/25 03:28:02;;;;;;;;;;;;;;;;;;5324753;28;19912;-73
2023/07/25 03:30:34;;;;;;;;;;;;;;;;;;5323371;28;20243;-72
2023/07/25 03:33:05;;;;;;;;;;;;;;;;;;5306359;28;19916;-72
2023/07/25 03:35:36;;;;;;;;;;;;;;;;;;5323450;28;20365;-72
2023/07/25 03:38:07;;;;;;;;;;;;;;;;;;5324336;28;19998;-71
2023/07/25 03:40:38;;;;;;;;;;;;;;;;;;5324043;28;20260;-73
2023/07/25 03:43:09;;;;;;;;;;;;;;;;;;5323864;28;19904;-72
2023/07/25 03:45:40;;;;;;;;;;;;;;;;;;5324052;28;20239;-73
2023/07/25 03:48:11;;;;;;;;;;;;;;;;;;5324421;28;19912;-74
2023/07/25 03:50:43;;;;;;;;;;;;;;;;;;5323081;28;20351;-72
2023/07/25 03:53:15;;;;;;;;;;;;;;;;;;5324098;28;19939;-73
2023/07/25 03:55:46;;;;;;;;;;;;;;;;;;5323747;28;20051;-72
2023/07/25 03:58:17;;;;;;;;;;;;;;;;;;5323634;28;20006;-72
2023/07/25 04:00:48;;;;;;;;;;;;;;;;;;5323938;28;19947;-72
2023/07/25 04:03:19;;;;;;;;;;;;;;;;;;5324552;28;19903;-72
2023/07/25 04:05:50;;;;;;;;;;;;;;;;;;5322892;28;20003;-73
2023/07/25 04:08:21;;;;;;;;;;;;;;;;;;5324446;28;19912;-72
2023/07/25 04:10:52;;;;;;;;;;;;;;;;;;5323057;28;19904;-73
2023/07/25 04:13:23;;;;;;;;;;;;;;;;;;5324130;28;19910;-73
2023/07/25 04:15:55;;;;;;;;;;;;;;;;;;5323879;28;20006;-73
2023/07/25 04:18:26;;;;;;;;;;;;;;;;;;5322999;28;19926;-73
2023/07/25 04:20:57;;;;;;;;;;;;;;;;;;5324143;28;19907;-73
2023/07/25 04:23:28;;;;;;;;;;;;;;;;;;5323708;28;19908;-73
2023/07/25 04:25:59;;;;;;;;;;;;;;;;;;5323334;28;19904;-74
2023/07/25 04:28:30;;;;;;;;;;;;;;;;;;5323577;28;19965;-73
2023/07/25 04:31:01;;;;;;;;;;;;;;;;;;5323972;28;19960;-73
2023/07/25 04:33:32;;;;;;;;;;;;;;;;;;5323038;28;19980;-73
2023/07/25 04:36:04;;;;;;;;;;;;;;;;;;5324000;28;19903;-72
2023/07/25 04:38:35;;;;;;;;;;;;;;;;;;5323411;28;19904;-72
2023/07/25 04:41:06;;;;;;;;;;;;;;;;;;5323100;28;19903;-73
2023/07/25 04:43:37;;;;;;;;;;;;;;;;;;5323593;28;19915;-72
2023/07/25 04:46:08;;;;;;;;;;;;;;;;;;5322445;28;20429;-72
2023/07/25 04:48:39;;;;;;;;;;;;;;;;;;5323343;28;19911;-73
2023/07/25 04:51:10;;;;;;;;;;;;;;;;;;5326816;28;20266;-72
2023/07/25 04:53:41;;;;;;;;;;;;;;;;;;5326460;28;19903;-73
2023/07/25 04:56:12;;;;;;;;;;;;;;;;;;5327934;28;19903;-72
2023/07/25 04:58:44;;;;;;;;;;;;;;;;;;5327014;28;19955;-72
2023/07/25 05:01:15;;;;;;;;;;;;;;;;;;5326789;28;20267;-72
2023/07/25 05:03:46;;;;;;;;;;;;;;;;;;5326948;28;19903;-72
2023/07/25 05:06:17;;;;;;;;;;;;;;;;;;5327391;28;19903;-73
2023/07/25 05:08:48;;;;;;;;;;;;;;;;;;5325887;28;19922;-72
2023/07/25 05:11:19;;;;;;;;;;;;;;;;;;5327495;28;19910;-73
2023/07/25 05:13:50;;;;;;;;;;;;;;;;;;5326837;28;19947;-72
2023/07/25 05:16:22;;;;;;;;;;;;;;;;;;5326441;28;19904;-73
2023/07/25 05:18:54;;;;;;;;;;;;;;;;;;5326479;28;20377;-73
2023/07/25 05:21:25;;;;;;;;;;;;;;;;;;5326043;28;19910;-72
2023/07/25 05:23:56;;;;;;;;;;;;;;;;;;5326925;28;19903;-72
2023/07/25 05:26:27;;;;;;;;;;;;;;;;;;5326932;28;20076;-72
2023/07/25 05:28:59;;;;;;;;;;;;;;;;;;5325782;28;19955;-72
2023/07/25 05:31:30;;;;;;;;;;;;;;;;;;5325487;28;19982;-73
2023/07/25 05:34:01;;;;;;;;;;;;;;;;;;5327144;28;20006;-72
2023/07/25 05:36:33;;;;;;;;;;;;;;;;;;5325552;28;19916;-72
2023/07/25 05:39:04;;;;;;;;;;;;;;;;;;5326735;28;19910;-73
2023/07/25 05:41:37;;;;;;;;;;;;;;;;;;5326152;28;20362;-72
2023/07/25 05:44:09;;;;;;;;;;;;;;;;;;5326181;28;20286;-72
2023/07/25 05:46:40;;;;;;;;;;;;;;;;;;5326022;28;19994;-72
2023/07/25 05:49:11;;;;;;;;;;;;;;;;;;5325875;28;19934;-73
2023/07/25 05:51:42;;;;;;;;;;;;;;;;;;5325798;28;19903;-73
2023/07/25 05:54:13;;;;;;;;;;;;;;;;;;5326602;28;19903;-73
2023/07/25 05:56:44;;;;;;;;;;;;;;;;;;5325228;28;19910;-72
2023/07/25 05:59:15;;;;;;;;;;;;;;;;;;5326552;28;19910;-72
2023/07/25 06:01:46;;;;;;;;;;;;;;;;;;5325423;28;19904;-72
2023/07/25 06:04:17;;;;;;;;;;;;;;;;;;5325476;28;19903;-72
2023/07/25 06:06:48;;;;;;;;;;;;;;;;;;5307251;28;19912;-72
2023/07/25 06:09:20;;;;;;;;;;;;;;;;;;5326370;28;19912;-73
2023/07/25 06:11:51;;;;;;;;;;;;;;;;;;5324742;28;19907;-72
2023/07/25 06:14:22;;;;;;;;;;;;;;;;;;5326278;28;19904;-73
2023/07/25 06:16:53;;;;;;;;;;;;;;;;;;5325351;28;19911;-72
2023/07/25 06:19:24;;;;;;;;;;;;;;;;;;5324973;28;19910;-72
2023/07/25 06:21:55;;;;;;;;;;;;;;;;;;5325714;28;19904;-72
2023/07/25 06:24:26;;;;;;;;;;;;;;;;;;5324909;28;19911;-72
2023/07/25 06:26:57;;;;;;;;;;;;;;;;;;5325246;28;19903;-73
2023/07/25 06:29:28;;;;;;;;;;;;;;;;;;5325319;28;19958;-72
2023/07/25 06:31:59;;;;;;;;;;;;;;;;;;5324736;28;19998;-74
2023/07/25 06:34:31;;;;;;;;;;;;;;;;;;5306829;28;19904;-73
2023/07/25 06:37:02;;;;;;;;;;;;;;;;;;5325702;28;19903;-73
2023/07/25 06:39:33;;;;;;;;;;;;;;;;;;5324288;28;20268;-74
2023/07/25 06:42:04;;;;;;;;;;;;;;;;;;5325349;28;19911;-73
2023/07/25 06:44:35;;;;;;;;;;;;;;;;;;5325148;28;19903;-73
2023/07/25 06:47:06;;;;;;;;;;;;;;;;;;5324736;28;19903;-74
2023/07/25 06:49:37;;;;;;;;;;;;;;;;;;5324874;28;20382;-72
2023/07/25 06:52:08;;;;;;;;;;;;;;;;;;5325185;28;19911;-72
2023/07/25 06:54:39;;;;;;;;;;;;;;;;;;5323946;28;20316;-73
2023/07/25 06:57:10;;;;;;;;;;;;;;;;;;5325194;28;19911;-74
2023/07/25 06:59:42;;;;;;;;;;;;;;;;;;5323840;28;19903;-73
2023/07/25 07:02:13;;;;;;;;;;;;;;;;;;5325278;28;20224;-73
2023/07/25 07:04:44;;;;;;;;;;;;;;;;;;5324439;28;19912;-73
2023/07/25 07:07:15;;;;;;;;;;;;;;;;;;5324246;28;19957;-73
2023/07/25 07:09:46;;;;;;;;;;;;;;;;;;5324473;28;19915;-73
2023/07/25 07:12:17;;;;;;;;;;;;;;;;;;5318235;28;19912;-73
2023/07/25 07:14:48;;;;;;;;;;;;;;;;;;5302078;28;20265;-74
2023/07/25 07:17:20;;;;;;;;;;;;;;;;;;5303295;28;19910;-74
2023/07/25 07:19:53;;;;;;;;;;;;;;;;;;5302978;28;20365;-73
2023/07/25 07:22:24;;;;;;;;;;;;;;;;;;5302603;28;19904;-74
2023/07/25 07:24:55;;;;;;;;;;;;;;;;;;5303292;28;19998;-74
2023/07/25 07:27:26;;;;;;;;;;;;;;;;;;5301764;28;20531;-71
2023/07/25 07:29:58;;;;;;;;;;;;;;;;;;5302345;28;19904;-76
2023/07/25 07:32:29;;;;;;;;;;;;;;;;;;5318757;28;19966;-74
2023/07/25 07:35:00;;;;;;;;;;;;;;;;;;5323625;28;19927;-72
2023/07/25 07:37:31;;;;;;;;;;;;;;;;;;5323864;28;19908;-74
2023/07/25 07:40:03;;;;;;;;;;;;;;;;;;5324299;28;19911;-72
2023/07/25 07:42:34;;;;;;;;;;;;;;;;;;5322605;28;19998;-72
2023/07/25 07:45:05;;;;;;;;;;;;;;;;;;5324590;28;20433;-73
2023/07/25 07:47:36;;;;;;;;;;;;;;;;;;5323230;28;20010;-72
2023/07/25 07:50:08;;;;;;;;;;;;;;;;;;5323523;28;19908;-74
2023/07/25 07:52:41;;;;;;;;;;;;;;;;;;5323442;28;19918;-74
2023/07/25 07:55:12;;;;;;;;;;;;;;;;;;5324407;28;19926;-73
2023/07/25 07:57:43;;;;;;;;;;;;;;;;;;5322750;28;20108;-72
2023/07/25 08:00:14;;;;;;;;;;;;;;;;;;5324058;28;19910;-73
2023/07/25 08:02:45;;;;;;;;;;;;;;;;;;5322329;28;19990;-70
2023/07/25 08:05:16;;;;;;;;;;;;;;;;;;5323595;28;19911;-72
2023/07/25 08:07:47;;;;;;;;;;;;;;;;;;5323311;28;20354;-73
2023/07/25 08:10:19;;;;;;;;;;;;;;;;;;5323503;28;19908;-73
2023/07/25 08:12:50;;;;;;;;;;;;;;;;;;5322402;28;19908;-70
2023/07/25 08:15:21;;;;;;;;;;;;;;;;;;5320384;28;20273;-74
2023/07/25 08:17:52;;;;;;;;;;;;;;;;;;5303934;28;19910;-70
2023/07/25 08:20:23;;;;;;;;;;;;;;;;;;5303845;28;19951;-71
2023/07/25 08:22:54;;;;;;;;;;;;;;;;;;5323857;28;19911;-71
2023/07/25 08:25:25;;;;;;;;;;;;;;;;;;5325835;28;19910;-73
2023/07/25 08:27:58;;;;;;;;;;;;;;;;;;5326791;28;19919;-72
2023/07/25 08:30:32;;;;;;;;;;;;;;;;;;5325609;28;19911;-72
2023/07/25 08:33:03;;;;;;;;;;;;;;;;;;5326483;28;19920;-73
2023/07/25 08:35:34;;;;;;;;;;;;;;;;;;5326374;28;19914;-73
2023/07/25 08:38:05;;;;;;;;;;;;;;;;;;5326142;28;19903;-73
2023/07/25 08:40:36;;;;;;;;;;;;;;;;;;5326025;28;20006;-74
2023/07/25 08:43:07;;;;;;;;;;;;;;;;;;5327688;28;19926;-73
2023/07/25 08:45:38;;;;;;;;;;;;;;;;;;5326569;28;19915;-74
2023/07/25 08:48:10;;;;;;;;;;;;;;;;;;5327916;28;20010;-74
2023/07/25 08:50:41;;;;;;;;;;;;;;;;;;5326841;28;20585;-74
2023/07/25 08:53:13;;;;;;;;;;;;;;;;;;5326666;28;19903;-73
2023/07/25 08:55:44;;;;;;;;;;;;;;;;;;5326676;28;19907;-74
2023/07/25 08:58:15;;;;;;;;;;;;;;;;;;5327269;28;20320;-72
2023/07/25 09:00:46;;;;;;;;;;;;;;;;;;5325983;28;20354;-73
2023/07/25 09:03:17;;;;;;;;;;;;;;;;;;5327448;28;19908;-73
2023/07/25 09:05:48;;;;;;;;;;;;;;;;;;5326477;28;20366;-72
2023/07/25 09:08:20;;;;;;;;;;;;;;;;;;5326397;28;19912;-71
2023/07/25 09:10:51;;;;;;;;;;;;;;;;;;5326669;28;19915;-71
2023/07/25 09:13:22;;;;;;;;;;;;;;;;;;5326291;28;19908;-72
2023/07/25 09:15:53;;;;;;;;;;;;;;;;;;5326558;28;20320;-72
2023/07/25 09:18:24;;;;;;;;;;;;;;;;;;5326803;28;19904;-73
2023/07/25 09:20:55;;;;;;;;;;;;;;;;;;5325747;28;19908;-72
2023/07/25 09:23:26;;;;;;;;;;;;;;;;;;5326872;28;20328;-69
2023/07/25 09:25:57;;;;;;;;;;;;;;;;;;5326733;28;19972;-72
2023/07/25 09:28:28;;;;;;;;;;;;;;;;;;5325886;28;20010;-73
2023/07/25 09:31:00;;;;;;;;;;;;;;;;;;5326172;28;20281;-73
2023/07/25 09:33:31;;;;;;;;;;;;;;;;;;5325947;28;19916;-74
2023/07/25 09:36:02;;;;;;;;;;;;;;;;;;5315858;28;20347;-73
2023/07/25 09:38:33;;;;;;;;;;;;;;;;;;5325771;28;19956;-74
2023/07/25 09:41:05;;;;;;;;;;;;;;;;;;5310206;28;19914;-74
2023/07/25 09:43:36;;;;;;;;;;;;;;;;;;5303973;28;19904;-75
2023/07/25 09:46:07;;;;;;;;;;;;;;;;;;5321524;28;20411;-74
2023/07/25 09:48:39;;;;;;;;;;;;;;;;;;5324207;28;19969;-73
2023/07/25 09:51:10;;;;;;;;;;;;;;;;;;5326213;28;19908;-73
2023/07/25 09:53:41;;;;;;;;;;;;;;;;;;5325790;28;19955;-74
2023/07/25 09:56:12;;;;;;;;;;;;;;;;;;5309839;28;20003;-74
2023/07/25 09:58:43;;;;;;;;;;;;;;;;;;5304236;28;19938;-74
2023/07/25 10:01:16;;;;;;;;;;;;;;;;;;5314784;28;20019;-73
2023/07/25 10:03:47;;;;;;;;;;;;;;;;;;5303656;28;19958;-74
2023/07/25 10:06:18;;;;;;;;;;;;;;;;;;5320940;28;19951;-73
2023/07/25 10:08:49;;;;;;;;;;;;;;;;;;5325111;28;19915;-73
2023/07/25 10:11:20;;;;;;;;;;;;;;;;;;5324764;28;20377;-74
2023/07/25 10:13:51;;;;;;;;;;;;;;;;;;5325089;28;19911;-75
2023/07/25 10:16:23;;;;;;;;;;;;;;;;;;5324614;28;19980;-74
2023/07/25 10:18:54;;;;;;;;;;;;;;;;;;5324378;28;19908;-73
2023/07/25 10:21:26;;;;;;;;;;;;;;;;;;5324955;28;19956;-75
2023/07/25 10:23:58;;;;;;;;;;;;;;;;;;5324745;28;20251;-75
2023/07/25 10:26:29;;;;;;;;;;;;;;;;;;5323012;28;19960;-74
2023/07/25 10:29:01;;;;;;;;;;;;;;;;;;5324624;28;19932;-74
2023/07/25 10:31:35;;;;;;;;;;;;;;;;;;5323248;28;19907;-76
2023/07/25 10:34:06;;;;;;;;;;;;;;;;;;5324035;28;20036;-75
2023/07/25 10:36:37;;;;;;;;;;;;;;;;;;5319839;28;20430;-73
2023/07/25 10:39:09;;;;;;;;;;;;;;;;;;5303319;28;20359;-73
2023/07/25 10:41:40;;;;;;;;;;;;;;;;;;5303660;28;19939;-73
2023/07/25 10:44:11;;;;;;;;;;;;;;;;;;5304275;28;20019;-73
2023/07/25 10:46:42;;;;;;;;;;;;;;;;;;5302297;28;20397;-73
2023/07/25 10:49:16;;;;;;;;;;;;;;;;;;5303223;28;19919;-72
2023/07/25 10:51:51;;;;;;;;;;;;;;;;;;5302694;28;19908;-73
2023/07/25 10:54:22;;;;;;;;;;;;;;;;;;5303749;28;19931;-74
2023/07/25 10:56:53;;;;;;;;;;;;;;;;;;5301677;28;19942;-73
2023/07/25 10:59:24;;;;;;;;;;;;;;;;;;5302972;28;19904;-73
2023/07/25 11:01:55;;;;;;;;;;;;;;;;;;5303736;28;19904;-73
2023/07/25 11:04:26;;;;;;;;;;;;;;;;;;5303623;28;19982;-74
2023/07/25 11:06:58;;;;;;;;;;;;;;;;;;5302735;28;19904;-75
2023/07/25 11:09:29;;;;;;;;;;;;;;;;;;5303330;28;20369;-74
2023/07/25 11:12:00;;;;;;;;;;;;;;;;;;5303728;28;19911;-75
2023/07/25 11:14:31;;;;;;;;;;;;;;;;;;5302503;28;19904;-75
2023/07/25 11:17:03;;;;;;;;;;;;;;;;;;5303630;28;19995;-74
2023/07/25 11:19:34;;;;;;;;;;;;;;;;;;5303297;28;20373;-74
2023/07/25 11:22:06;;;;;;;;;;;;;;;;;;5302898;28;19910;-74
2023/07/25 11:24:37;;;;;;;;;;;;;;;;;;5300430;28;19908;-75
2023/07/25 11:27:08;;;;;;;;;;;;;;;;;;5302570;28;19914;-75
2023/07/25 11:29:39;;;;;;;;;;;;;;;;;;5312619;28;20251;-74
2023/07/25 11:32:10;;;;;;;;;;;;;;;;;;5323412;28;19922;-74
2023/07/25 11:34:42;;;;;;;;;;;;;;;;;;5302357;28;19961;-74
2023/07/25 11:37:13;;;;;;;;;;;;;;;;;;5302126;28;19973;-74
2023/07/25 11:39:44;;;;;;;;;;;;;;;;;;5301197;28;19908;-74
2023/07/25 11:42:15;;;;;;;;;;;;;;;;;;5297595;28;20453;-74
2023/07/25 11:44:46;;;;;;;;;;;;;;;;;;5298804;28;19946;-75
2023/07/25 11:47:17;;;;;;;;;;;;;;;;;;5299660;28;19908;-75
2023/07/25 11:49:48;;;;;;;;;;;;;;;;;;5298465;28;19998;-74
2023/07/25 11:52:19;;;;;;;;;;;;;;;;;;5300004;28;20281;-74
2023/07/25 11:54:50;;;;;;;;;;;;;;;;;;5299060;28;19908;-73
2023/07/25 11:57:22;;;;;;;;;;;;;;;;;;5302886;28;20347;-74
2023/07/25 11:59:53;;;;;;;;;;;;;;;;;;5305535;28;19904;-74
2023/07/25 12:02:26;;;;;;;;;;;;;;;;;;5306585;28;19943;-74
2023/07/25 12:04:57;;;;;;;;;;;;;;;;;;5307157;28;19930;-74
2023/07/25 12:07:28;;;;;;;;;;;;;;;;;;5306995;28;19904;-74
2023/07/25 12:09:59;;;;;;;;;;;;;;;;;;5306419;28;19912;-74
2023/07/25 12:12:30;;;;;;;;;;;;;;;;;;5306466;28;19951;-73
2023/07/25 12:15:01;;;;;;;;;;;;;;;;;;5304232;28;20277;-74
2023/07/25 12:17:32;;;;;;;;;;;;;;;;;;5300612;28;19908;-73
2023/07/25 12:20:04;;;;;;;;;;;;;;;;;;5305184;28;19990;-75
2023/07/25 12:22:35;;;;;;;;;;;;;;;;;;5305075;28;19999;-74
2023/07/25 12:25:09;;;;;;;;;;;;;;;;;;5305490;27;19955;-74
2023/07/25 12:27:40;;;;;;;;;;;;;;;;;;5305584;28;20334;-74
2023/07/25 12:30:11;;;;;;;;;;;;;;;;;;5305017;28;19969;-73
2023/07/25 12:32:42;;;;;;;;;;;;;;;;;;5304691;28;20386;-72
2023/07/25 12:35:13;;;;;;;;;;;;;;;;;;5305316;28;19961;-72
2023/07/25 12:37:45;;;;;;;;;;;;;;;;;;5301200;28;19953;-73
2023/07/25 12:40:16;;;;;;;;;;;;;;;;;;5305613;28;19912;-73
2023/07/25 12:42:47;;;;;;;;;;;;;;;;;;5304690;28;19973;-74
2023/07/25 12:45:18;;;;;;;;;;;;;;;;;;5304733;28;19908;-74
2023/07/25 12:47:49;;;;;;;;;;;;;;;;;;5313055;28;20430;-73
2023/07/25 12:50:20;;;;;;;;;;;;;;;;;;5305937;28;20015;-73
2023/07/25 12:52:51;;;;;;;;;;;;;;;;;;5303601;28;20291;-73
2023/07/25 12:55:22;;;;;;;;;;;;;;;;;;5305183;28;19915;-74
2023/07/25 12:57:53;;;;;;;;;;;;;;;;;;5304872;28;19904;-74
2023/07/25 13:00:24;;;;;;;;;;;;;;;;;;5303906;28;19908;-74
2023/07/25 13:02:56;;;;;;;;;;;;;;;;;;5304224;28;19908;-73
2023/07/25 13:05:28;;;;;;;;;;;;;;;;;;5303783;28;20022;-74
2023/07/25 13:07:59;;;;;;;;;;;;;;;;;;5304329;28;20010;-73
2023/07/25 13:10:30;;;;;;;;;;;;;;;;;;5303405;28;19908;-74
2023/07/25 13:13:01;;;;;;;;;;;;;;;;;;5304329;28;19911;-74
2023/07/25 13:15:33;;;;;;;;;;;;;;;;;;5304214;28;19912;-72
2023/07/25 13:18:04;;;;;;;;;;;;;;;;;;5304393;28;19908;-72
2023/07/25 13:20:35;;;;;;;;;;;;;;;;;;5302562;28;19955;-71
2023/07/25 13:23:09;;;;;;;;;;;;;;;;;;5305077;28;19954;-71
2023/07/25 13:25:40;;;;;;;;;;;;;;;;;;5304614;28;19912;-72
2023/07/25 13:28:11;;;;;;;;;;;;;;;;;;5304720;28;20278;-72
2023/07/25 13:30:42;;;;;;;;;;;;;;;;;;5303282;28;19961;-72
2023/07/25 13:33:13;;;;;;;;;;;;;;;;;;5305105;28;19941;-72
2023/07/25 13:35:44;;;;;;;;;;;;;;;;;;5302257;28;19912;-72
2023/07/25 13:38:15;;;;;;;;;;;;;;;;;;5305654;28;20204;-72
2023/07/25 13:40:48;;;;;;;;;;;;;;;;;;5303820;28;19908;-72
2023/07/25 13:43:19;;;;;;;;;;;;;;;;;;5305394;28;19943;-72
2023/07/25 13:45:50;;;;;;;;;;;;;;;;;;5304873;28;19942;-75
2023/07/25 13:48:22;;;;;;;;;;;;;;;;;;5304346;28;20259;-75
2023/07/25 13:50:53;;;;;;;;;;;;;;;;;;5304539;28;19908;-74
2023/07/25 13:53:24;;;;;;;;;;;;;;;;;;5304976;28;20367;-74
2023/07/25 13:55:55;;;;;;;;;;;;;;;;;;5304347;28;19908;-75
2023/07/25 13:58:26;;;;;;;;;;;;;;;;;;5304728;28;20008;-74
2023/07/25 14:00:58;;;;;;;;;;;;;;;;;;5304756;28;19912;-74
2023/07/25 14:03:29;;;;;;;;;;;;;;;;;;5311323;28;19908;-74
2023/07/25 14:06:00;;;;;;;;;;;;;;;;;;5304508;28;20030;-75
2023/07/25 14:08:31;;;;;;;;;;;;;;;;;;5303733;28;20384;-74
2023/07/25 14:11:02;;;;;;;;;;;;;;;;;;5304811;28;19951;-74
2023/07/25 14:13:34;;;;;;;;;;;;;;;;;;5298377;28;19915;-73
2023/07/25 14:16:05;;;;;;;;;;;;;;;;;;5302504;28;19958;-75
2023/07/25 14:18:36;;;;;;;;;;;;;;;;;;5302257;28;19907;-76
2023/07/25 14:21:07;;;;;;;;;;;;;;;;;;5304703;28;19931;-78
2023/07/25 14:23:38;;;;;;;;;;;;;;;;;;5308646;28;19966;-75
2023/07/25 14:26:09;;;;;;;;;;;;;;;;;;5301413;28;19908;-75
2023/07/25 14:28:41;;;;;;;;;;;;;;;;;;5302823;28;20247;-76
2023/07/25 14:31:13;;;;;;;;;;;;;;;;;;5303644;28;19904;-75
2023/07/25 14:33:44;;;;;;;;;;;;;;;;;;5304098;28;19916;-76
2023/07/25 14:36:15;;;;;;;;;;;;;;;;;;5304588;28;19904;-75
2023/07/25 14:38:46;;;;;;;;;;;;;;;;;;5301050;28;20284;-76
2023/07/25 14:41:17;;;;;;;;;;;;;;;;;;5302112;28;19904;-75
2023/07/25 14:43:48;;;;;;;;;;;;;;;;;;5300727;28;19904;-76
2023/07/25 14:46:20;;;;;;;;;;;;;;;;;;5302283;28;19904;-75
2023/07/25 14:48:51;;;;;;;;;;;;;;;;;;5301893;28;19912;-76
2023/07/25 14:51:22;;;;;;;;;;;;;;;;;;5301889;28;19911;-76
2023/07/25 14:53:53;;;;;;;;;;;;;;;;;;5303572;28;19908;-76
2023/07/25 14:56:24;;;;;;;;;;;;;;;;;;5303831;28;19911;-76
2023/07/25 14:58:55;;;;;;;;;;;;;;;;;;5303192;28;20380;-75
2023/07/25 15:01:26;;;;;;;;;;;;;;;;;;5303613;28;19939;-72
2023/07/25 15:03:58;;;;;;;;;;;;;;;;;;5303714;28;20281;-71
2023/07/25 15:06:29;;;;;;;;;;;;;;;;;;5302645;28;19904;-72
2023/07/25 15:09:00;;;;;;;;;;;;;;;;;;5303812;28;20351;-72
2023/07/25 15:11:31;;;;;;;;;;;;;;;;;;5303300;28;19927;-73
2023/07/25 15:14:02;;;;;;;;;;;;;;;;;;5302993;28;19904;-72
2023/07/25 15:16:33;;;;;;;;;;;;;;;;;;5303390;28;19904;-73
2023/07/25 15:19:06;;;;;;;;;;;;;;;;;;5302692;28;20770;-72
2023/07/25 15:21:37;;;;;;;;;;;;;;;;;;5302789;28;19904;-72
2023/07/25 15:24:08;;;;;;;;;;;;;;;;;;5303613;28;20373;-72
2023/07/25 15:26:39;;;;;;;;;;;;;;;;;;5302310;28;19977;-71
2023/07/25 15:29:10;;;;;;;;;;;;;;;;;;5303312;28;19919;-72
2023/07/25 15:31:41;;;;;;;;;;;;;;;;;;5284658;28;20335;-72
2023/07/25 15:34:12;;;;;;;;;;;;;;;;;;5302191;28;19942;-72
2023/07/25 15:36:44;;;;;;;;;;;;;;;;;;5301253;28;20365;-72
2023/07/25 15:39:15;;;;;;;;;;;;;;;;;;5301552;28;19943;-71
2023/07/25 15:41:46;;;;;;;;;;;;;;;;;;5299874;28;19951;-72
2023/07/25 15:44:17;;;;;;;;;;;;;;;;;;5301095;28;19904;-72
2023/07/25 15:46:48;;;;;;;;;;;;;;;;;;5300994;28;19903;-72
2023/07/25 15:49:19;;;;;;;;;;;;;;;;;;5300702;28;19920;-73
2023/07/25 15:51:50;;;;;;;;;;;;;;;;;;5302096;28;19984;-72
2023/07/25 15:54:21;;;;;;;;;;;;;;;;;;5302484;28;19904;-72
2023/07/25 15:56:52;;;;;;;;;;;;;;;;;;5302700;28;20243;-71
2023/07/25 15:59:24;;;;;;;;;;;;;;;;;;5303020;28;20006;-72
2023/07/25 16:01:55;;;;;;;;;;;;;;;;;;5302205;28;19904;-71
2023/07/25 16:04:26;;;;;;;;;;;;;;;;;;5302698;28;19904;-72
2023/07/25 16:06:57;;;;;;;;;;;;;;;;;;5302709;28;19904;-71
2023/07/25 16:09:28;;;;;;;;;;;;;;;;;;5302275;28;19912;-71
2023/07/25 16:11:59;;;;;;;;;;;;;;;;;;5302962;28;19993;-71
2023/07/25 16:14:30;;;;;;;;;;;;;;;;;;5302459;28;19991;-71
2023/07/25 16:17:02;;;;;;;;;;;;;;;;;;5302352;28;20320;-71
2023/07/25 16:19:33;;;;;;;;;;;;;;;;;;5302707;28;19960;-71
2023/07/25 16:22:04;;;;;;;;;;;;;;;;;;5302808;28;20339;-71
2023/07/25 16:24:35;;;;;;;;;;;;;;;;;;5302174;28;19904;-72
2023/07/25 16:27:06;;;;;;;;;;;;;;;;;;5303038;28;19955;-72
2023/07/25 16:29:37;;;;;;;;;;;;;;;;;;5301569;28;20027;-71
2023/07/25 16:32:09;;;;;;;;;;;;;;;;;;5302854;28;19919;-71
2023/07/25 16:34:40;;;;;;;;;;;;;;;;;;5302419;28;19980;-71
2023/07/25 16:37:11;;;;;;;;;;;;;;;;;;5302310;28;19958;-71
2023/07/25 16:39:42;;;;;;;;;;;;;;;;;;5302355;28;19900;-71
2023/07/25 16:42:13;;;;;;;;;;;;;;;;;;5302685;28;20015;-71
2023/07/25 16:44:44;;;;;;;;;;;;;;;;;;5301335;28;20054;-71
2023/07/25 16:47:15;;;;;;;;;;;;;;;;;;5305809;28;19938;-72
2023/07/25 16:49:46;;;;;;;;;;;;;;;;;;5305700;28;20004;-71
2023/07/25 16:52:18;;;;;;;;;;;;;;;;;;5305687;28;19904;-71
2023/07/25 16:54:49;;;;;;;;;;;;;;;;;;5306067;28;20253;-71
2023/07/25 16:57:20;;;;;;;;;;;;;;;;;;5305945;28;20373;-72
2023/07/25 16:59:51;;;;;;;;;;;;;;;;;;5305855;28;19904;-72
2023/07/25 17:02:22;;;;;;;;;;;;;;;;;;5306577;28;20266;-71
2023/07/25 17:04:54;;;;;;;;;;;;;;;;;;5304996;28;19904;-72
2023/07/25 17:07:26;;;;;;;;;;;;;;;;;;5306071;28;19904;-71
2023/07/25 17:09:57;;;;;;;;;;;;;;;;;;5306051;28;20320;-72
2023/07/25 17:12:28;;;;;;;;;;;;;;;;;;5305258;28;19912;-71